Parkview, Ohio
Current Conditions -  °F | °C
As of 10:51 PM on Wednesday 28 Jan 2015 (Local Time) from KCLE Reporting Station
Overcast Overcast  
Wind Chill: 13°   Ceiling: 15000
Heat Index: 25°   Visibility: 10mi
Dew Point: 11°   Wind: 14mph
Humidity: 55%   Direction: 170°S
Pressure: 30.24"   Gusts: NA
Location:  41.4423°N, 81.8531°W
Report Text: KCLE 290351Z 17012KT 10SM BKN150 OVC200 M04/M12 A3024 RMK AO2 SLP253 T10391117
Loading
Personal Weather Stations






























Interactive Weather Map New forecast layout! Learn more

10-Day Weather Forecast

Advertisements
Track Severe Weather on mobile